sensor_id;sensor_type;location;lat;lon;timestamp;P1;durP1;ratioP1;P2;durP2;ratioP2
25497;SDS011;13406;53.380;7.226;2023-09-18T00:02:06;13.43;;;12.10;;
25497;SDS011;13406;53.380;7.226;2023-09-18T00:04:32;13.63;;;12.30;;
25497;SDS011;13406;53.380;7.226;2023-09-18T00:06:58;12.70;;;11.40;;
25497;SDS011;13406;53.380;7.226;2023-09-18T00:09:24;13.60;;;12.30;;
25497;SDS011;13406;53.380;7.226;2023-09-18T00:11:49;12.53;;;11.33;;
25497;SDS011;13406;53.380;7.226;2023-09-18T00:14:15;12.47;;;11.27;;
25497;SDS011;13406;53.380;7.226;2023-09-18T00:16:40;10.83;;;9.83;;
25497;SDS011;13406;53.380;7.226;2023-09-18T00:19:05;12.80;;;11.50;;
25497;SDS011;13406;53.380;7.226;2023-09-18T00:21:35;13.07;;;11.77;;
25497;SDS011;13406;53.380;7.226;2023-09-18T00:24:01;13.17;;;11.97;;
25497;SDS011;13406;53.380;7.226;2023-09-18T00:26:26;12.90;;;11.70;;
25497;SDS011;13406;53.380;7.226;2023-09-18T00:28:52;12.87;;;11.57;;
25497;SDS011;13406;53.380;7.226;2023-09-18T00:31:18;12.20;;;11.00;;
25497;SDS011;13406;53.380;7.226;2023-09-18T00:33:44;12.60;;;11.40;;
25497;SDS011;13406;53.380;7.226;2023-09-18T00:36:09;12.23;;;11.07;;
25497;SDS011;13406;53.380;7.226;2023-09-18T00:38:35;12.03;;;10.87;;
25497;SDS011;13406;53.380;7.226;2023-09-18T00:41:00;12.50;;;11.20;;
25497;SDS011;13406;53.380;7.226;2023-09-18T00:43:26;11.37;;;10.27;;
25497;SDS011;13406;53.380;7.226;2023-09-18T00:45:51;12.97;;;11.67;;
25497;SDS011;13406;53.380;7.226;2023-09-18T00:48:17;11.80;;;10.70;;
25497;SDS011;13406;53.380;7.226;2023-09-18T00:50:45;10.83;;;9.73;;
25497;SDS011;13406;53.380;7.226;2023-09-18T00:53:16;11.97;;;10.83;;
25497;SDS011;13406;53.380;7.226;2023-09-18T00:55:44;11.50;;;10.40;;
25497;SDS011;13406;53.380;7.226;2023-09-18T00:58:10;11.23;;;10.13;;
25497;SDS011;13406;53.380;7.226;2023-09-18T01:00:36;12.10;;;10.90;;
25497;SDS011;13406;53.380;7.226;2023-09-18T01:03:03;11.20;;;10.00;;
25497;SDS011;13406;53.380;7.226;2023-09-18T01:05:32;10.93;;;9.83;;
25497;SDS011;13406;53.380;7.226;2023-09-18T01:07:58;10.50;;;9.50;;
25497;SDS011;13406;53.380;7.226;2023-09-18T01:10:24;10.23;;;9.23;;
25497;SDS011;13406;53.380;7.226;2023-09-18T01:13:04;9.90;;;8.90;;
25497;SDS011;13406;53.380;7.226;2023-09-18T01:16:16;10.90;;;9.80;;
25497;SDS011;13406;53.380;7.226;2023-09-18T01:18:27;11.83;;;9.90;;
25497;SDS011;13406;53.380;7.226;2023-09-18T01:20:53;9.87;;;8.97;;
25497;SDS011;13406;53.380;7.226;2023-09-18T01:23:18;10.50;;;9.40;;
25497;SDS011;13406;53.380;7.226;2023-09-18T01:25:44;10.70;;;9.70;;
25497;SDS011;13406;53.380;7.226;2023-09-18T01:28:09;11.70;;;9.33;;
25497;SDS011;13406;53.380;7.226;2023-09-18T01:30:34;14.77;;;9.33;;
25497;SDS011;13406;53.380;7.226;2023-09-18T01:33:00;10.70;;;9.60;;
25497;SDS011;13406;53.380;7.226;2023-09-18T01:35:29;12.40;;;11.20;;
25497;SDS011;13406;53.380;7.226;2023-09-18T01:37:56;10.57;;;9.57;;
25497;SDS011;13406;53.380;7.226;2023-09-18T01:40:24;11.60;;;10.40;;
25497;SDS011;13406;53.380;7.226;2023-09-18T01:42:50;11.80;;;10.60;;
25497;SDS011;13406;53.380;7.226;2023-09-18T01:45:15;11.50;;;10.40;;
25497;SDS011;13406;53.380;7.226;2023-09-18T01:47:41;11.57;;;10.47;;
25497;SDS011;13406;53.380;7.226;2023-09-18T01:50:06;11.63;;;10.23;;
25497;SDS011;13406;53.380;7.226;2023-09-18T01:52:32;10.97;;;9.03;;
25497;SDS011;13406;53.380;7.226;2023-09-18T01:54:59;10.80;;;9.80;;
25497;SDS011;13406;53.380;7.226;2023-09-18T01:57:25;11.50;;;10.40;;
25497;SDS011;13406;53.380;7.226;2023-09-18T01:59:50;12.00;;;10.83;;
25497;SDS011;13406;53.380;7.226;2023-09-18T02:02:16;16.63;;;10.93;;
25497;SDS011;13406;53.380;7.226;2023-09-18T02:04:41;11.77;;;10.67;;
25497;SDS011;13406;53.380;7.226;2023-09-18T02:07:07;11.23;;;10.13;;
25497;SDS011;13406;53.380;7.226;2023-09-18T02:09:32;11.73;;;10.53;;
25497;SDS011;13406;53.380;7.226;2023-09-18T02:11:58;12.57;;;11.27;;
25497;SDS011;13406;53.380;7.226;2023-09-18T02:14:23;13.27;;;11.97;;
25497;SDS011;13406;53.380;7.226;2023-09-18T02:16:49;12.30;;;11.10;;
25497;SDS011;13406;53.380;7.226;2023-09-18T02:19:15;11.37;;;10.27;;
25497;SDS011;13406;53.380;7.226;2023-09-18T02:21:41;12.40;;;11.10;;
25497;SDS011;13406;53.380;7.226;2023-09-18T02:24:07;12.20;;;10.17;;
25497;SDS011;13406;53.380;7.226;2023-09-18T02:26:33;12.00;;;10.63;;
25497;SDS011;13406;53.380;7.226;2023-09-18T02:28:59;11.70;;;10.60;;
25497;SDS011;13406;53.380;7.226;2023-09-18T02:31:26;11.77;;;10.57;;
25497;SDS011;13406;53.380;7.226;2023-09-18T02:33:52;11.67;;;10.47;;
25497;SDS011;13406;53.380;7.226;2023-09-18T02:36:17;11.30;;;10.13;;
25497;SDS011;13406;53.380;7.226;2023-09-18T02:38:43;11.00;;;9.90;;
25497;SDS011;13406;53.380;7.226;2023-09-18T02:41:08;11.10;;;10.00;;
25497;SDS011;13406;53.380;7.226;2023-09-18T02:43:34;12.40;;;9.90;;
25497;SDS011;13406;53.380;7.226;2023-09-18T02:46:00;11.60;;;10.50;;
25497;SDS011;13406;53.380;7.226;2023-09-18T02:48:25;10.83;;;9.73;;
25497;SDS011;13406;53.380;7.226;2023-09-18T02:50:50;9.97;;;8.90;;
25497;SDS011;13406;53.380;7.226;2023-09-18T02:53:23;12.40;;;10.20;;
25497;SDS011;13406;53.380;7.226;2023-09-18T02:55:52;11.57;;;10.37;;
25497;SDS011;13406;53.380;7.226;2023-09-18T02:58:22;12.27;;;10.10;;
25497;SDS011;13406;53.380;7.226;2023-09-18T03:00:50;11.97;;;10.67;;
25497;SDS011;13406;53.380;7.226;2023-09-18T03:03:16;11.47;;;9.60;;
25497;SDS011;13406;53.380;7.226;2023-09-18T03:05:43;11.53;;;9.47;;
25497;SDS011;13406;53.380;7.226;2023-09-18T03:08:09;10.93;;;9.83;;
25497;SDS011;13406;53.380;7.226;2023-09-18T03:10:36;10.73;;;9.60;;
25497;SDS011;13406;53.380;7.226;2023-09-18T03:13:05;12.10;;;10.27;;
25497;SDS011;13406;53.380;7.226;2023-09-18T03:15:31;11.27;;;10.10;;
25497;SDS011;13406;53.380;7.226;2023-09-18T03:17:57;11.30;;;10.10;;
25497;SDS011;13406;53.380;7.226;2023-09-18T03:20:27;11.27;;;10.07;;
25497;SDS011;13406;53.380;7.226;2023-09-18T03:22:54;11.80;;;10.60;;
25497;SDS011;13406;53.380;7.226;2023-09-18T03:25:21;12.67;;;10.07;;
25497;SDS011;13406;53.380;7.226;2023-09-18T03:27:47;11.30;;;9.07;;
25497;SDS011;13406;53.380;7.226;2023-09-18T03:30:13;10.67;;;9.63;;
25497;SDS011;13406;53.380;7.226;2023-09-18T03:32:41;11.37;;;10.10;;
25497;SDS011;13406;53.380;7.226;2023-09-18T03:35:07;10.73;;;9.63;;
25497;SDS011;13406;53.380;7.226;2023-09-18T03:37:40;10.83;;;9.70;;
25497;SDS011;13406;53.380;7.226;2023-09-18T03:40:06;12.37;;;10.00;;
25497;SDS011;13406;53.380;7.226;2023-09-18T03:42:32;11.23;;;10.00;;
25497;SDS011;13406;53.380;7.226;2023-09-18T03:44:58;11.63;;;10.07;;
25497;SDS011;13406;53.380;7.226;2023-09-18T03:47:23;10.60;;;9.23;;
25497;SDS011;13406;53.380;7.226;2023-09-18T03:49:49;11.53;;;10.03;;
25497;SDS011;13406;53.380;7.226;2023-09-18T03:52:14;11.63;;;9.97;;
25497;SDS011;13406;53.380;7.226;2023-09-18T03:54:39;12.17;;;10.03;;
25497;SDS011;13406;53.380;7.226;2023-09-18T03:57:05;10.93;;;9.77;;
25497;SDS011;13406;53.380;7.226;2023-09-18T03:59:30;15.77;;;10.70;;
25497;SDS011;13406;53.380;7.226;2023-09-18T04:01:56;11.10;;;9.90;;
25497;SDS011;13406;53.380;7.226;2023-09-18T04:04:21;12.10;;;10.80;;
25497;SDS011;13406;53.380;7.226;2023-09-18T04:06:46;11.77;;;10.57;;
25497;SDS011;13406;53.380;7.226;2023-09-18T04:09:12;13.30;;;11.90;;
25497;SDS011;13406;53.380;7.226;2023-09-18T04:11:40;13.23;;;11.03;;
25497;SDS011;13406;53.380;7.226;2023-09-18T04:14:05;10.50;;;9.40;;
25497;SDS011;13406;53.380;7.226;2023-09-18T04:16:31;12.40;;;11.10;;
25497;SDS011;13406;53.380;7.226;2023-09-18T04:19:01;12.70;;;10.27;;
25497;SDS011;13406;53.380;7.226;2023-09-18T04:21:26;11.43;;;10.27;;
25497;SDS011;13406;53.380;7.226;2023-09-18T04:23:52;14.53;;;10.40;;
25497;SDS011;13406;53.380;7.226;2023-09-18T04:26:22;11.40;;;10.20;;
25497;SDS011;13406;53.380;7.226;2023-09-18T04:28:48;9.87;;;8.87;;
25497;SDS011;13406;53.380;7.226;2023-09-18T04:31:13;12.20;;;9.80;;
25497;SDS011;13406;53.380;7.226;2023-09-18T04:33:39;11.33;;;9.60;;
25497;SDS011;13406;53.380;7.226;2023-09-18T04:36:04;9.87;;;8.87;;
25497;SDS011;13406;53.380;7.226;2023-09-18T04:38:30;12.00;;;9.17;;
25497;SDS011;13406;53.380;7.226;2023-09-18T04:40:59;11.53;;;9.67;;
25497;SDS011;13406;53.380;7.226;2023-09-18T04:43:24;9.73;;;8.73;;
25497;SDS011;13406;53.380;7.226;2023-09-18T04:45:50;9.60;;;8.60;;
25497;SDS011;13406;53.380;7.226;2023-09-18T04:48:16;11.20;;;9.43;;
25497;SDS011;13406;53.380;7.226;2023-09-18T04:50:42;10.40;;;8.50;;
25497;SDS011;13406;53.380;7.226;2023-09-18T04:53:08;11.73;;;9.10;;
25497;SDS011;13406;53.380;7.226;2023-09-18T04:55:33;10.20;;;9.10;;
25497;SDS011;13406;53.380;7.226;2023-09-18T04:57:59;10.77;;;9.30;;
25497;SDS011;13406;53.380;7.226;2023-09-18T05:00:25;9.20;;;7.40;;
25497;SDS011;13406;53.380;7.226;2023-09-18T05:02:52;10.37;;;8.63;;
25497;SDS011;13406;53.380;7.226;2023-09-18T05:05:17;13.43;;;8.43;;
25497;SDS011;13406;53.380;7.226;2023-09-18T05:07:43;9.87;;;8.80;;
25497;SDS011;13406;53.380;7.226;2023-09-18T05:10:09;13.90;;;7.87;;
25497;SDS011;13406;53.380;7.226;2023-09-18T05:12:35;10.80;;;8.43;;
25497;SDS011;13406;53.380;7.226;2023-09-18T05:15:02;10.67;;;8.10;;
25497;SDS011;13406;53.380;7.226;2023-09-18T05:17:39;10.53;;;8.30;;
25497;SDS011;13406;53.380;7.226;2023-09-18T05:20:07;10.93;;;8.77;;
25497;SDS011;13406;53.380;7.226;2023-09-18T05:22:35;9.00;;;7.80;;
25497;SDS011;13406;53.380;7.226;2023-09-18T05:25:01;8.83;;;7.93;;
25497;SDS011;13406;53.380;7.226;2023-09-18T05:27:26;9.30;;;7.70;;
25497;SDS011;13406;53.380;7.226;2023-09-18T05:29:52;9.30;;;7.60;;
25497;SDS011;13406;53.380;7.226;2023-09-18T05:32:17;7.80;;;7.00;;
25497;SDS011;13406;53.380;7.226;2023-09-18T05:34:42;8.77;;;7.40;;
25497;SDS011;13406;53.380;7.226;2023-09-18T05:37:08;9.13;;;7.37;;
25497;SDS011;13406;53.380;7.226;2023-09-18T05:39:34;7.90;;;7.03;;
25497;SDS011;13406;53.380;7.226;2023-09-18T05:41:59;8.13;;;7.30;;
25497;SDS011;13406;53.380;7.226;2023-09-18T05:44:25;9.50;;;6.93;;
25497;SDS011;13406;53.380;7.226;2023-09-18T05:46:50;9.63;;;6.90;;
25497;SDS011;13406;53.380;7.226;2023-09-18T05:49:15;7.40;;;6.53;;
25497;SDS011;13406;53.380;7.226;2023-09-18T05:51:41;7.50;;;6.40;;
25497;SDS011;13406;53.380;7.226;2023-09-18T05:54:06;7.13;;;6.40;;
25497;SDS011;13406;53.380;7.226;2023-09-18T05:56:32;7.87;;;6.70;;
25497;SDS011;13406;53.380;7.226;2023-09-18T05:58:58;10.80;;;6.30;;
25497;SDS011;13406;53.380;7.226;2023-09-18T06:01:24;8.30;;;6.70;;
25497;SDS011;13406;53.380;7.226;2023-09-18T06:03:50;8.27;;;7.40;;
25497;SDS011;13406;53.380;7.226;2023-09-18T06:06:15;8.37;;;6.00;;
25497;SDS011;13406;53.380;7.226;2023-09-18T06:08:41;8.77;;;5.93;;
25497;SDS011;13406;53.380;7.226;2023-09-18T06:11:06;7.77;;;5.97;;
25497;SDS011;13406;53.380;7.226;2023-09-18T06:13:32;8.33;;;5.47;;
25497;SDS011;13406;53.380;7.226;2023-09-18T06:15:59;8.37;;;6.60;;
25497;SDS011;13406;53.380;7.226;2023-09-18T06:18:30;6.83;;;5.23;;
25497;SDS011;13406;53.380;7.226;2023-09-18T06:20:56;6.73;;;5.07;;
25497;SDS011;13406;53.380;7.226;2023-09-18T06:23:21;7.30;;;5.50;;
25497;SDS011;13406;53.380;7.226;2023-09-18T06:25:46;6.40;;;4.63;;
25497;SDS011;13406;53.380;7.226;2023-09-18T06:28:12;6.40;;;5.00;;
25497;SDS011;13406;53.380;7.226;2023-09-18T06:30:38;7.80;;;5.23;;
25497;SDS011;13406;53.380;7.226;2023-09-18T06:33:03;8.20;;;5.50;;
25497;SDS011;13406;53.380;7.226;2023-09-18T06:35:29;8.80;;;6.30;;
25497;SDS011;13406;53.380;7.226;2023-09-18T06:37:54;7.40;;;6.20;;
25497;SDS011;13406;53.380;7.226;2023-09-18T06:40:23;12.70;;;7.10;;
25497;SDS011;13406;53.380;7.226;2023-09-18T06:42:50;9.10;;;6.80;;
25497;SDS011;13406;53.380;7.226;2023-09-18T06:45:16;10.30;;;6.63;;
25497;SDS011;13406;53.380;7.226;2023-09-18T06:47:42;8.90;;;6.00;;
25497;SDS011;13406;53.380;7.226;2023-09-18T06:50:07;10.23;;;6.40;;
25497;SDS011;13406;53.380;7.226;2023-09-18T06:52:34;13.40;;;7.33;;
25497;SDS011;13406;53.380;7.226;2023-09-18T06:54:59;12.33;;;6.80;;
25497;SDS011;13406;53.380;7.226;2023-09-18T06:57:25;7.17;;;6.13;;
25497;SDS011;13406;53.380;7.226;2023-09-18T06:59:50;8.90;;;6.60;;
25497;SDS011;13406;53.380;7.226;2023-09-18T07:02:16;10.13;;;6.17;;
25497;SDS011;13406;53.380;7.226;2023-09-18T07:04:41;12.57;;;6.10;;
25497;SDS011;13406;53.380;7.226;2023-09-18T07:07:11;11.53;;;6.67;;
25497;SDS011;13406;53.380;7.226;2023-09-18T07:09:37;8.63;;;6.97;;
25497;SDS011;13406;53.380;7.226;2023-09-18T07:12:03;7.73;;;6.47;;
25497;SDS011;13406;53.380;7.226;2023-09-18T07:14:29;8.10;;;6.80;;
25497;SDS011;13406;53.380;7.226;2023-09-18T07:16:56;12.43;;;6.60;;
25497;SDS011;13406;53.380;7.226;2023-09-18T07:19:21;8.57;;;6.90;;
25497;SDS011;13406;53.380;7.226;2023-09-18T07:21:46;7.50;;;6.10;;
25497;SDS011;13406;53.380;7.226;2023-09-18T07:24:12;9.37;;;6.03;;
25497;SDS011;13406;53.380;7.226;2023-09-18T07:26:45;10.97;;;6.37;;
25497;SDS011;13406;53.380;7.226;2023-09-18T07:29:12;10.10;;;6.47;;
25497;SDS011;13406;53.380;7.226;2023-09-18T07:31:43;12.10;;;7.23;;
25497;SDS011;13406;53.380;7.226;2023-09-18T07:34:09;11.30;;;6.47;;
25497;SDS011;13406;53.380;7.226;2023-09-18T07:36:35;10.10;;;6.43;;
25497;SDS011;13406;53.380;7.226;2023-09-18T07:39:01;15.07;;;7.03;;
25497;SDS011;13406;53.380;7.226;2023-09-18T07:41:27;15.23;;;7.20;;
25497;SDS011;13406;53.380;7.226;2023-09-18T07:43:52;12.90;;;7.13;;
25497;SDS011;13406;53.380;7.226;2023-09-18T07:46:18;12.57;;;7.60;;
25497;SDS011;13406;53.380;7.226;2023-09-18T07:48:43;11.40;;;6.63;;
25497;SDS011;13406;53.380;7.226;2023-09-18T07:51:12;9.90;;;6.30;;
25497;SDS011;13406;53.380;7.226;2023-09-18T07:53:39;8.80;;;6.73;;
25497;SDS011;13406;53.380;7.226;2023-09-18T07:56:04;12.67;;;8.03;;
25497;SDS011;13406;53.380;7.226;2023-09-18T07:58:30;11.33;;;7.13;;
25497;SDS011;13406;53.380;7.226;2023-09-18T08:00:58;10.47;;;7.57;;
25497;SDS011;13406;53.380;7.226;2023-09-18T08:03:24;8.83;;;6.83;;
25497;SDS011;13406;53.380;7.226;2023-09-18T08:05:51;7.63;;;6.40;;
25497;SDS011;13406;53.380;7.226;2023-09-18T08:08:18;7.20;;;5.40;;
25497;SDS011;13406;53.380;7.226;2023-09-18T08:10:45;8.07;;;5.10;;
25497;SDS011;13406;53.380;7.226;2023-09-18T08:13:11;7.50;;;4.80;;
25497;SDS011;13406;53.380;7.226;2023-09-18T08:15:37;7.10;;;5.30;;
25497;SDS011;13406;53.380;7.226;2023-09-18T08:18:03;8.10;;;5.17;;
25497;SDS011;13406;53.380;7.226;2023-09-18T08:20:28;6.20;;;4.90;;
25497;SDS011;13406;53.380;7.226;2023-09-18T08:22:54;6.20;;;4.67;;
25497;SDS011;13406;53.380;7.226;2023-09-18T08:25:19;5.17;;;3.70;;
25497;SDS011;13406;53.380;7.226;2023-09-18T08:27:45;6.50;;;4.03;;
25497;SDS011;13406;53.380;7.226;2023-09-18T08:30:11;7.80;;;4.27;;
25497;SDS011;13406;53.380;7.226;2023-09-18T08:32:38;6.30;;;4.00;;
25497;SDS011;13406;53.380;7.226;2023-09-18T08:35:04;4.90;;;3.80;;
25497;SDS011;13406;53.380;7.226;2023-09-18T08:37:30;8.53;;;4.93;;
25497;SDS011;13406;53.380;7.226;2023-09-18T08:39:56;4.83;;;3.80;;
25497;SDS011;13406;53.380;7.226;2023-09-18T08:42:21;6.33;;;3.90;;
25497;SDS011;13406;53.380;7.226;2023-09-18T08:44:48;7.40;;;4.30;;
25497;SDS011;13406;53.380;7.226;2023-09-18T08:47:16;6.50;;;4.20;;
25497;SDS011;13406;53.380;7.226;2023-09-18T08:49:45;6.10;;;4.40;;
25497;SDS011;13406;53.380;7.226;2023-09-18T08:52:13;6.17;;;4.63;;
25497;SDS011;13406;53.380;7.226;2023-09-18T08:54:40;7.83;;;5.73;;
25497;SDS011;13406;53.380;7.226;2023-09-18T08:57:08;7.30;;;5.57;;
25497;SDS011;13406;53.380;7.226;2023-09-18T08:59:34;9.60;;;6.10;;
25497;SDS011;13406;53.380;7.226;2023-09-18T09:02:01;9.03;;;5.87;;
25497;SDS011;13406;53.380;7.226;2023-09-18T09:04:27;9.77;;;6.87;;
25497;SDS011;13406;53.380;7.226;2023-09-18T09:06:52;7.80;;;6.53;;
25497;SDS011;13406;53.380;7.226;2023-09-18T09:09:18;9.80;;;6.30;;
25497;SDS011;13406;53.380;7.226;2023-09-18T09:11:48;10.37;;;8.57;;
25497;SDS011;13406;53.380;7.226;2023-09-18T09:14:16;10.47;;;8.47;;
25497;SDS011;13406;53.380;7.226;2023-09-18T09:16:47;12.37;;;8.70;;
25497;SDS011;13406;53.380;7.226;2023-09-18T09:19:16;11.17;;;8.23;;
25497;SDS011;13406;53.380;7.226;2023-09-18T09:21:43;12.87;;;8.97;;
25497;SDS011;13406;53.380;7.226;2023-09-18T09:24:10;11.50;;;8.47;;
25497;SDS011;13406;53.380;7.226;2023-09-18T09:26:43;12.80;;;8.83;;
25497;SDS011;13406;53.380;7.226;2023-09-18T09:29:26;10.40;;;7.53;;
25497;SDS011;13406;53.380;7.226;2023-09-18T09:31:52;10.90;;;8.47;;
25497;SDS011;13406;53.380;7.226;2023-09-18T09:34:24;9.40;;;7.70;;
25497;SDS011;13406;53.380;7.226;2023-09-18T09:36:54;11.20;;;6.80;;
25497;SDS011;13406;53.380;7.226;2023-09-18T09:39:21;11.87;;;6.67;;
25497;SDS011;13406;53.380;7.226;2023-09-18T09:41:49;9.37;;;6.70;;
25497;SDS011;13406;53.380;7.226;2023-09-18T09:44:18;9.80;;;6.23;;
25497;SDS011;13406;53.380;7.226;2023-09-18T09:46:46;12.83;;;6.70;;
25497;SDS011;13406;53.380;7.226;2023-09-18T09:49:15;8.07;;;6.77;;
25497;SDS011;13406;53.380;7.226;2023-09-18T09:51:41;10.33;;;6.77;;
25497;SDS011;13406;53.380;7.226;2023-09-18T09:54:07;8.77;;;6.13;;
25497;SDS011;13406;53.380;7.226;2023-09-18T09:56:48;7.30;;;5.83;;
25497;SDS011;13406;53.380;7.226;2023-09-18T09:59:19;10.70;;;6.37;;
25497;SDS011;13406;53.380;7.226;2023-09-18T10:01:48;8.10;;;7.00;;
25497;SDS011;13406;53.380;7.226;2023-09-18T10:04:16;8.37;;;6.60;;
25497;SDS011;13406;53.380;7.226;2023-09-18T10:06:43;11.23;;;7.27;;
25497;SDS011;13406;53.380;7.226;2023-09-18T10:09:12;7.47;;;6.47;;
25497;SDS011;13406;53.380;7.226;2023-09-18T10:11:41;9.37;;;6.97;;
25497;SDS011;13406;53.380;7.226;2023-09-18T10:14:14;12.30;;;7.83;;
25497;SDS011;13406;53.380;7.226;2023-09-18T10:16:45;10.77;;;9.17;;
25497;SDS011;13406;53.380;7.226;2023-09-18T10:24:27;13.57;;;9.33;;
25497;SDS011;13406;53.380;7.226;2023-09-18T10:26:58;11.33;;;9.40;;
25497;SDS011;13406;53.380;7.226;2023-09-18T10:29:25;14.23;;;9.60;;
25497;SDS011;13406;53.380;7.226;2023-09-18T10:31:52;13.07;;;9.13;;
25497;SDS011;13406;53.380;7.226;2023-09-18T10:34:19;13.57;;;10.40;;
25497;SDS011;13406;53.380;7.226;2023-09-18T10:36:46;11.23;;;10.03;;
25497;SDS011;13406;53.380;7.226;2023-09-18T10:39:13;14.70;;;11.80;;
25497;SDS011;13406;53.380;7.226;2023-09-18T10:41:44;14.27;;;10.57;;
25497;SDS011;13406;53.380;7.226;2023-09-18T10:44:12;14.50;;;11.00;;
25497;SDS011;13406;53.380;7.226;2023-09-18T10:46:39;13.70;;;10.77;;
25497;SDS011;13406;53.380;7.226;2023-09-18T10:49:04;13.87;;;11.13;;
25497;SDS011;13406;53.380;7.226;2023-09-18T10:51:31;12.10;;;10.50;;
25497;SDS011;13406;53.380;7.226;2023-09-18T10:53:58;14.10;;;11.13;;
25497;SDS011;13406;53.380;7.226;2023-09-18T10:56:25;13.20;;;10.90;;
25497;SDS011;13406;53.380;7.226;2023-09-18T10:59:00;14.97;;;10.80;;
25497;SDS011;13406;53.380;7.226;2023-09-18T11:01:31;13.80;;;10.53;;
25497;SDS011;13406;53.380;7.226;2023-09-18T11:03:58;16.40;;;11.50;;
25497;SDS011;13406;53.380;7.226;2023-09-18T11:06:28;13.70;;;11.20;;
25497;SDS011;13406;53.380;7.226;2023-09-18T11:09:02;13.17;;;11.20;;
25497;SDS011;13406;53.380;7.226;2023-09-18T11:11:31;17.37;;;10.47;;
25497;SDS011;13406;53.380;7.226;2023-09-18T11:14:00;13.47;;;10.93;;
25497;SDS011;13406;53.380;7.226;2023-09-18T11:18:52;12.23;;;10.43;;
25497;SDS011;13406;53.380;7.226;2023-09-18T11:21:29;16.73;;;11.30;;
25497;SDS011;13406;53.380;7.226;2023-09-18T11:24:00;12.00;;;10.80;;
25497;SDS011;13406;53.380;7.226;2023-09-18T11:29:09;16.23;;;10.97;;
25497;SDS011;13406;53.380;7.226;2023-09-18T11:34:22;13.43;;;9.77;;
25497;SDS011;13406;53.380;7.226;2023-09-18T11:36:49;11.77;;;9.50;;
25497;SDS011;13406;53.380;7.226;2023-09-18T11:44:35;11.13;;;8.23;;
25497;SDS011;13406;53.380;7.226;2023-09-18T11:47:06;10.97;;;8.13;;
25497;SDS011;13406;53.380;7.226;2023-09-18T11:49:33;9.63;;;7.03;;
25497;SDS011;13406;53.380;7.226;2023-09-18T11:52:00;6.83;;;5.80;;
25497;SDS011;13406;53.380;7.226;2023-09-18T11:54:27;6.60;;;5.20;;
25497;SDS011;13406;53.380;7.226;2023-09-18T11:56:54;6.57;;;5.23;;
25497;SDS011;13406;53.380;7.226;2023-09-18T11:59:32;7.13;;;4.97;;
25497;SDS011;13406;53.380;7.226;2023-09-18T12:02:11;6.10;;;4.70;;
25497;SDS011;13406;53.380;7.226;2023-09-18T12:04:45;6.73;;;3.90;;
25497;SDS011;13406;53.380;7.226;2023-09-18T12:07:12;10.77;;;4.73;;
25497;SDS011;13406;53.380;7.226;2023-09-18T12:09:38;9.57;;;5.40;;
25497;SDS011;13406;53.380;7.226;2023-09-18T12:12:05;7.57;;;4.50;;
25497;SDS011;13406;53.380;7.226;2023-09-18T12:14:32;7.27;;;4.10;;
25497;SDS011;13406;53.380;7.226;2023-09-18T12:16:59;5.93;;;3.87;;
25497;SDS011;13406;53.380;7.226;2023-09-18T12:19:29;6.23;;;4.00;;
25497;SDS011;13406;53.380;7.226;2023-09-18T12:21:55;5.20;;;3.70;;
25497;SDS011;13406;53.380;7.226;2023-09-18T12:24:24;5.57;;;4.10;;
25497;SDS011;13406;53.380;7.226;2023-09-18T12:26:51;5.10;;;3.63;;
25497;SDS011;13406;53.380;7.226;2023-09-18T12:29:17;6.70;;;4.03;;
25497;SDS011;13406;53.380;7.226;2023-09-18T12:31:44;6.50;;;3.20;;
25497;SDS011;13406;53.380;7.226;2023-09-18T12:34:20;4.83;;;2.90;;
25497;SDS011;13406;53.380;7.226;2023-09-18T12:36:49;5.00;;;3.43;;
25497;SDS011;13406;53.380;7.226;2023-09-18T12:39:16;6.30;;;3.20;;
25497;SDS011;13406;53.380;7.226;2023-09-18T12:41:42;5.20;;;3.43;;
25497;SDS011;13406;53.380;7.226;2023-09-18T12:44:09;5.20;;;2.90;;
25497;SDS011;13406;53.380;7.226;2023-09-18T12:46:35;8.00;;;3.93;;
25497;SDS011;13406;53.380;7.226;2023-09-18T12:49:14;6.23;;;3.53;;
25497;SDS011;13406;53.380;7.226;2023-09-18T12:51:43;4.70;;;2.50;;
25497;SDS011;13406;53.380;7.226;2023-09-18T12:54:09;6.10;;;3.40;;
25497;SDS011;13406;53.380;7.226;2023-09-18T12:56:42;5.70;;;3.57;;
25497;SDS011;13406;53.380;7.226;2023-09-18T12:59:08;9.00;;;4.50;;
25497;SDS011;13406;53.380;7.226;2023-09-18T13:01:34;5.60;;;3.53;;
25497;SDS011;13406;53.380;7.226;2023-09-18T13:04:03;7.17;;;4.20;;
25497;SDS011;13406;53.380;7.226;2023-09-18T13:06:30;8.77;;;4.43;;
25497;SDS011;13406;53.380;7.226;2023-09-18T13:09:14;8.63;;;4.80;;
25497;SDS011;13406;53.380;7.226;2023-09-18T13:11:53;7.63;;;4.80;;
25497;SDS011;13406;53.380;7.226;2023-09-18T13:14:20;7.83;;;4.30;;
25497;SDS011;13406;53.380;7.226;2023-09-18T13:16:45;13.63;;;4.57;;
25497;SDS011;13406;53.380;7.226;2023-09-18T13:19:11;12.80;;;4.30;;
25497;SDS011;13406;53.380;7.226;2023-09-18T13:21:36;10.83;;;3.90;;
25497;SDS011;13406;53.380;7.226;2023-09-18T13:24:05;9.10;;;4.00;;
25497;SDS011;13406;53.380;7.226;2023-09-18T13:26:31;7.87;;;3.63;;
25497;SDS011;13406;53.380;7.226;2023-09-18T13:28:56;5.60;;;2.83;;
25497;SDS011;13406;53.380;7.226;2023-09-18T13:31:22;6.33;;;3.70;;
25497;SDS011;13406;53.380;7.226;2023-09-18T13:33:47;7.03;;;3.53;;
25497;SDS011;13406;53.380;7.226;2023-09-18T13:36:12;6.60;;;2.87;;
25497;SDS011;13406;53.380;7.226;2023-09-18T13:38:38;5.07;;;3.27;;
25497;SDS011;13406;53.380;7.226;2023-09-18T13:41:03;6.57;;;3.27;;
25497;SDS011;13406;53.380;7.226;2023-09-18T13:43:30;6.87;;;2.93;;
25497;SDS011;13406;53.380;7.226;2023-09-18T13:45:59;6.50;;;3.10;;
25497;SDS011;13406;53.380;7.226;2023-09-18T13:48:25;5.63;;;3.40;;
25497;SDS011;13406;53.380;7.226;2023-09-18T13:50:51;4.80;;;3.10;;
25497;SDS011;13406;53.380;7.226;2023-09-18T13:53:17;4.20;;;2.30;;
25497;SDS011;13406;53.380;7.226;2023-09-18T13:55:43;5.93;;;2.50;;
25497;SDS011;13406;53.380;7.226;2023-09-18T13:58:09;5.27;;;2.67;;
25497;SDS011;13406;53.380;7.226;2023-09-18T14:00:34;5.33;;;2.40;;
25497;SDS011;13406;53.380;7.226;2023-09-18T14:03:00;6.00;;;2.80;;
25497;SDS011;13406;53.380;7.226;2023-09-18T14:05:27;4.60;;;2.50;;
25497;SDS011;13406;53.380;7.226;2023-09-18T14:07:54;6.43;;;3.07;;
25497;SDS011;13406;53.380;7.226;2023-09-18T14:10:24;4.10;;;2.27;;
25497;SDS011;13406;53.380;7.226;2023-09-18T14:12:50;5.13;;;2.63;;
25497;SDS011;13406;53.380;7.226;2023-09-18T14:15:16;8.93;;;2.50;;
25497;SDS011;13406;53.380;7.226;2023-09-18T14:17:41;5.50;;;2.83;;
25497;SDS011;13406;53.380;7.226;2023-09-18T14:20:07;7.23;;;3.10;;
25497;SDS011;13406;53.380;7.226;2023-09-18T14:22:33;4.93;;;2.40;;
25497;SDS011;13406;53.380;7.226;2023-09-18T14:24:59;4.13;;;2.70;;
25497;SDS011;13406;53.380;7.226;2023-09-18T14:27:25;7.70;;;2.80;;
25497;SDS011;13406;53.380;7.226;2023-09-18T14:29:50;5.03;;;2.23;;
25497;SDS011;13406;53.380;7.226;2023-09-18T14:32:16;3.73;;;2.10;;
25497;SDS011;13406;53.380;7.226;2023-09-18T14:34:41;5.27;;;2.20;;
25497;SDS011;13406;53.380;7.226;2023-09-18T14:37:08;4.00;;;2.57;;
25497;SDS011;13406;53.380;7.226;2023-09-18T14:39:34;4.80;;;2.80;;
25497;SDS011;13406;53.380;7.226;2023-09-18T14:41:59;5.07;;;2.80;;
25497;SDS011;13406;53.380;7.226;2023-09-18T14:44:25;5.57;;;2.57;;
25497;SDS011;13406;53.380;7.226;2023-09-18T14:46:52;6.43;;;3.00;;
25497;SDS011;13406;53.380;7.226;2023-09-18T14:49:19;7.20;;;2.67;;
25497;SDS011;13406;53.380;7.226;2023-09-18T14:51:44;5.50;;;2.87;;
25497;SDS011;13406;53.380;7.226;2023-09-18T14:54:10;6.30;;;3.10;;